Time;durP1;ratioP1;P1;durP2;ratioP2;P2;SDS_P1;SDS_P2;PMS_P1;PMS_P2;Temp;Humidity;BMP_temperature;BMP_pressure;BME280_temperature;BME280_humidity;BME280_pressure;Samples;Min_cycle;Max_cycle;Signal;HPM_P1;HPM_P2
2023/12/29 00:00:41;;;;;;;5.22;4.55;;;;;;;5.00;100.00;62512.53;5111034;28;20212;-78
2023/12/29 00:03:08;;;;;;;9.27;4.72;;;;;;;4.99;100.00;62514.03;5110922;28;20200;-79
2023/12/29 00:05:36;;;;;;;5.63;5.15;;;;;;;5.04;100.00;62517.16;5110987;28;20212;-77
2023/12/29 00:08:05;;;;;;;8.25;5.25;;;;;;;5.01;100.00;62519.13;5113154;28;20202;-77
2023/12/29 00:10:32;;;;;;;5.32;4.68;;;;;;;5.07;100.00;62522.25;5111134;28;20261;-78
2023/12/29 00:12:58;;;;;;;7.30;4.85;;;;;;;5.10;100.00;62527.88;5111603;28;20196;-78
2023/12/29 00:15:25;;;;;;;4.43;4.07;;;;;;;5.10;100.00;62523.34;5110177;28;20500;-78
2023/12/29 00:17:52;;;;;;;6.50;3.92;;;;;;;5.23;100.00;62541.28;5111728;28;20196;-77
2023/12/29 00:20:19;;;;;;;8.05;5.10;;;;;;;5.11;100.00;62523.88;5111509;28;20215;-78
2023/12/29 00:22:46;;;;;;;10.30;5.47;;;;;;;5.06;100.00;62521.75;5113947;28;20172;-79
2023/12/29 00:25:15;;;;;;;6.55;5.95;;;;;;;4.97;100.00;62506.91;5111271;28;20216;-79
2023/12/29 00:27:42;;;;;;;11.55;8.88;;;;;;;4.83;100.00;62493.03;5114403;28;20220;-79
2023/12/29 00:30:10;;;;;;;11.07;8.07;;;;;;;4.80;100.00;62494.47;5110198;28;20243;-79
2023/12/29 00:32:37;;;;;;;14.57;9.57;;;;;;;4.76;100.00;62485.31;5112043;28;20216;-78
2023/12/29 00:35:04;;;;;;;12.15;8.95;;;;;;;4.68;100.00;62477.56;5110111;28;20226;-79
2023/12/29 00:37:31;;;;;;;8.70;7.80;;;;;;;4.52;100.00;62464.13;5112408;28;20217;-78
2023/12/29 00:39:58;;;;;;;13.57;9.43;;;;;;;4.56;100.00;62462.69;5112370;28;20229;-79
2023/12/29 00:42:26;;;;;;;16.05;10.98;;;;;;;4.47;100.00;62451.44;5110794;28;20363;-79
2023/12/29 00:44:53;;;;;;;12.35;8.10;;;;;;;4.41;100.00;62457.34;5111076;28;20637;-77
2023/12/29 00:47:20;;;;;;;6.25;5.47;;;;;;;4.25;100.00;62433.31;5112100;28;20227;-78
2023/12/29 00:49:47;;;;;;;5.65;4.75;;;;;;;4.32;100.00;62440.53;5110380;28;20232;-80
2023/12/29 00:52:14;;;;;;;7.68;5.70;;;;;;;4.26;100.00;62434.34;5109839;28;20436;-79
2023/12/29 00:54:41;;;;;;;8.13;5.85;;;;;;;4.17;100.00;62432.66;5111595;28;20581;-78
2023/12/29 00:57:09;;;;;;;8.52;6.35;;;;;;;4.14;100.00;62427.06;5111208;28;20516;-79
2023/12/29 00:59:38;;;;;;;9.65;7.82;;;;;;;4.15;100.00;62426.06;5110452;28;20239;-78
2023/12/29 01:02:04;;;;;;;10.07;6.53;;;;;;;4.17;100.00;62428.13;5111257;28;20214;-78
2023/12/29 01:04:31;;;;;;;8.52;5.75;;;;;;;4.04;100.00;62417.25;5110352;28;20216;-78
2023/12/29 01:06:58;;;;;;;6.22;5.68;;;;;;;4.06;100.00;62411.25;5110772;28;20196;-79
2023/12/29 01:09:25;;;;;;;9.27;5.55;;;;;;;4.01;100.00;62414.19;5116735;28;20290;-79
2023/12/29 01:11:52;;;;;;;10.43;5.88;;;;;;;3.98;100.00;62410.59;5110219;28;20294;-79
2023/12/29 01:14:19;;;;;;;6.60;4.20;;;;;;;3.96;100.00;62409.03;5109337;28;20222;-78
2023/12/29 01:16:47;;;;;;;8.20;4.35;;;;;;;4.10;100.00;62420.41;5109502;28;20200;-77
2023/12/29 01:19:14;;;;;;;5.63;4.30;;;;;;;4.15;100.00;62423.03;5109611;28;20459;-79
2023/12/29 01:21:41;;;;;;;7.75;4.57;;;;;;;4.28;100.00;62436.41;5109885;28;20431;-79
2023/12/29 01:24:08;;;;;;;8.30;5.15;;;;;;;4.31;100.00;62440.03;5113688;28;20242;-79
2023/12/29 01:26:38;;;;;;;4.63;4.13;;;;;;;4.33;100.00;62444.09;5112470;28;20476;-78
2023/12/29 01:29:05;;;;;;;6.78;4.35;;;;;;;4.33;100.00;62447.09;5109570;28;20231;-78
2023/12/29 01:31:32;;;;;;;4.47;4.13;;;;;;;4.30;100.00;62441.50;5109144;28;20211;-79
2023/12/29 01:34:00;;;;;;;4.30;3.45;;;;;;;4.29;100.00;62440.47;5109346;28;20212;-78
2023/12/29 01:36:27;;;;;;;7.45;4.32;;;;;;;4.12;100.00;62419.94;5111773;28;20199;-78
2023/12/29 01:38:54;;;;;;;4.88;4.18;;;;;;;4.06;100.00;62416.28;5108817;28;20265;-79
2023/12/29 01:41:21;;;;;;;7.65;4.47;;;;;;;4.00;100.00;62410.66;5111317;28;20192;-79
2023/12/29 01:44:21;;;;;;;7.50;4.03;;;;;;;3.92;100.00;62407.44;5110119;28;20317;-78
2023/12/29 01:46:47;;;;;;;5.63;4.10;;;;;;;3.79;100.00;62389.03;5109375;28;20192;-80
2023/12/29 01:49:16;;;;;;;10.63;7.15;;;;;;;3.77;100.00;62388.97;5107395;28;20232;-78
2023/12/29 01:51:43;;;;;;;14.70;8.45;;;;;;;3.69;100.00;62378.25;5109069;28;20305;-77
2023/12/29 01:54:10;;;;;;;15.82;11.32;;;;;;;3.67;100.00;62373.66;5111433;28;20234;-78
2023/12/29 01:56:37;;;;;;;18.92;11.25;;;;;;;3.67;100.00;62373.66;5111338;28;20221;-78
2023/12/29 01:59:04;;;;;;;17.48;8.93;;;;;;;3.64;100.00;62373.09;5108638;28;20307;-80
2023/12/29 02:01:31;;;;;;;6.97;6.03;;;;;;;3.57;100.00;62366.41;5108590;28;20265;-80
2023/12/29 02:03:58;;;;;;;11.60;7.45;;;;;;;3.54;100.00;62361.31;5111116;28;20235;-77
2023/12/29 02:06:26;;;;;;;8.65;6.82;;;;;;;3.53;100.00;62362.81;5109024;28;20192;-78
2023/12/29 02:08:53;;;;;;;4.90;4.38;;;;;;;3.49;100.00;62361.22;5108554;28;20203;-78
2023/12/29 02:11:20;;;;;;;6.20;3.38;;;;;;;3.51;100.00;62360.75;5111841;28;20192;-77
2023/12/29 02:13:47;;;;;;;4.05;3.40;;;;;;;3.49;100.00;62358.69;5108462;28;20263;-78
2023/12/29 02:16:18;;;;;;;9.20;5.28;;;;;;;3.49;100.00;62358.19;5109038;28;20192;-79
2023/12/29 02:18:45;;;;;;;7.95;4.72;;;;;;;3.45;100.00;62359.09;5112110;28;20198;-79
2023/12/29 02:21:12;;;;;;;3.72;3.38;;;;;;;3.53;100.00;62359.78;5108327;28;20192;-79
2023/12/29 02:23:40;;;;;;;8.40;4.25;;;;;;;3.49;100.00;62358.69;5108419;28;20352;-78
2023/12/29 02:26:10;;;;;;;5.20;3.95;;;;;;;3.51;100.00;62360.25;5109715;28;20196;-78
2023/12/29 02:28:37;;;;;;;4.47;3.80;;;;;;;3.47;100.00;62356.63;5112389;28;20196;-79
2023/12/29 02:31:07;;;;;;;3.75;3.38;;;;;;;3.51;100.00;62360.25;5107844;28;20227;-78
2023/12/29 02:33:36;;;;;;;5.88;3.45;;;;;;;3.45;100.00;62354.56;5107954;28;20200;-78
2023/12/29 02:36:03;;;;;;;4.95;4.25;;;;;;;3.47;100.00;62354.13;5108662;28;20438;-79
2023/12/29 02:38:30;;;;;;;7.00;3.67;;;;;;;3.54;100.00;62360.81;5108638;28;20416;-79
2023/12/29 02:40:57;;;;;;;6.50;4.07;;;;;;;3.59;100.00;62365.94;5110061;28;20219;-77
2023/12/29 02:43:26;;;;;;;9.02;4.63;;;;;;;3.51;100.00;62363.28;5109195;28;20220;-78
2023/12/29 02:45:53;;;;;;;6.50;3.65;;;;;;;3.46;100.00;62352.59;5106968;28;20261;-79
2023/12/29 02:48:19;;;;;;;3.80;3.40;;;;;;;3.49;100.00;62360.69;5107156;28;20233;-78
2023/12/29 02:50:46;;;;;;;5.10;4.18;;;;;;;3.50;100.00;62362.22;5110020;28;20236;-78
2023/12/29 02:53:14;;;;;;;4.53;3.80;;;;;;;3.63;100.00;62372.06;5108635;28;20219;-78
2023/12/29 02:55:41;;;;;;;4.65;3.67;;;;;;;3.65;100.00;62377.16;5108859;28;20234;-78
2023/12/29 02:58:08;;;;;;;7.03;4.07;;;;;;;3.74;100.00;62388.41;5111385;28;20192;-79
2023/12/29 03:00:36;;;;;;;5.88;3.80;;;;;;;3.75;100.00;62384.91;5107006;28;20224;-79
2023/12/29 03:03:03;;;;;;;3.88;3.55;;;;;;;3.73;100.00;62380.34;5109298;28;20223;-79
2023/12/29 03:05:30;;;;;;;7.65;4.13;;;;;;;3.75;100.00;62384.91;5107628;28;20421;-79
2023/12/29 03:07:58;;;;;;;6.15;3.92;;;;;;;3.76;100.00;62387.97;5106812;28;20259;-79
2023/12/29 03:10:25;;;;;;;3.95;3.55;;;;;;;3.80;100.00;62392.06;5107614;28;20473;-78
2023/12/29 03:12:51;;;;;;;4.03;3.72;;;;;;;3.72;100.00;62381.84;5109165;28;20263;-78
2023/12/29 03:15:18;;;;;;;4.40;3.97;;;;;;;3.73;100.00;62380.34;5113370;28;20257;-78
2023/12/29 03:17:47;;;;;;;5.82;4.10;;;;;;;3.84;100.00;62394.19;5107530;28;20218;-80
2023/12/29 03:20:14;;;;;;;4.97;3.03;;;;;;;3.67;100.00;62376.69;5108936;28;20226;-77
2023/12/29 03:22:41;;;;;;;5.00;3.75;;;;;;;3.36;100.00;62347.34;5107676;28;20199;-79
2023/12/29 03:25:09;;;;;;;8.73;6.10;;;;;;;2.99;100.00;62304.78;5108588;28;20216;-78
2023/12/29 03:27:36;;;;;;;8.95;7.60;;;;;;;2.76;100.00;62286.16;5110424;28;20196;-78
2023/12/29 03:30:03;;;;;;;16.00;8.90;;;;;;;2.69;100.00;62273.97;5109237;28;20294;-78
2023/12/29 03:32:30;;;;;;;14.38;9.07;;;;;;;2.69;100.00;62273.97;5108231;28;20206;-79
2023/12/29 03:34:59;;;;;;;14.57;9.25;;;;;;;2.64;100.00;62273.34;5107720;28;20263;-79
2023/12/29 03:37:25;;;;;;;18.00;9.55;;;;;;;2.65;100.00;62269.34;5107797;28;20196;-78
2023/12/29 03:39:52;;;;;;;14.77;9.18;;;;;;;2.58;100.00;62262.66;5106743;28;20467;-78
2023/12/29 03:42:19;;;;;;;9.73;7.65;;;;;;;2.50;100.00;62259.47;5106700;28;20433;-78
2023/12/29 03:44:47;;;;;;;12.85;8.82;;;;;;;2.51;100.00;62257.97;5110364;28;20226;-78
2023/12/29 03:47:14;;;;;;;20.35;10.48;;;;;;;2.47;100.00;62253.38;5110402;28;20223;-78
2023/12/29 03:49:41;;;;;;;18.70;11.85;;;;;;;2.44;100.00;62247.75;5106929;28;20232;-79
2023/12/29 03:52:09;;;;;;;13.07;9.40;;;;;;;2.40;100.00;62241.66;5108038;28;20192;-77
2023/12/29 03:54:36;;;;;;;15.13;10.93;;;;;;;2.36;100.00;62240.56;5108353;28;20226;-78
2023/12/29 03:57:03;;;;;;;16.45;10.57;;;;;;;2.33;100.00;62239.47;5107405;28;20200;-78
2023/12/29 03:59:29;;;;;;;12.50;9.50;;;;;;;2.25;100.00;62228.75;5108331;28;20220;-77
2023/12/29 04:01:56;;;;;;;9.77;7.82;;;;;;;2.25;100.00;62233.78;5107626;28;20203;-79
2023/12/29 04:04:23;;;;;;;10.23;7.18;;;;;;;2.27;100.00;62231.34;5109902;28;20254;-78
2023/12/29 04:06:50;;;;;;;8.43;5.50;;;;;;;2.27;100.00;62233.31;5106234;28;20204;-78
2023/12/29 04:09:18;;;;;;;10.43;5.90;;;;;;;2.34;100.00;62241.03;5105853;28;20548;-80
2023/12/29 04:11:45;;;;;;;14.60;8.55;;;;;;;2.38;100.00;62241.59;5110723;28;20264;-77
2023/12/29 04:14:12;;;;;;;13.13;7.85;;;;;;;2.44;100.00;62247.75;5111020;28;20220;-79
2023/12/29 04:16:39;;;;;;;15.23;8.82;;;;;;;2.46;100.00;62249.81;5111641;28;20574;-77
2023/12/29 04:19:06;;;;;;;18.85;11.75;;;;;;;2.46;100.00;62255.34;5113911;28;20212;-79
2023/12/29 04:21:33;;;;;;;17.25;10.77;;;;;;;2.47;100.00;62250.84;5110081;28;20222;-78
2023/12/29 04:24:00;;;;;;;10.27;8.40;;;;;;;2.58;100.00;62262.66;5110309;28;20273;-78
2023/12/29 04:26:28;;;;;;;16.88;10.02;;;;;;;2.48;100.00;62254.91;5111931;28;20196;-79
2023/12/29 04:28:55;;;;;;;16.40;9.63;;;;;;;2.44;100.00;62250.78;5111976;28;20192;-78
2023/12/29 04:31:22;;;;;;;15.57;9.82;;;;;;;2.35;100.00;62244.03;5110262;28;20228;-78
2023/12/29 04:33:49;;;;;;;11.93;8.75;;;;;;;2.38;100.00;62242.13;5112642;28;20196;-78
2023/12/29 04:36:16;;;;;;;21.95;12.43;;;;;;;2.42;100.00;62248.72;5111246;28;20229;-79
2023/12/29 04:38:43;;;;;;;24.55;15.15;;;;;;;2.45;100.00;62251.81;5110317;28;20200;-78
2023/12/29 04:41:10;;;;;;;28.75;17.33;;;;;;;2.54;100.00;62261.06;5109847;28;20192;-78
2023/12/29 04:43:38;;;;;;;27.88;16.92;;;;;;;2.59;100.00;62268.19;5112128;28;20214;-77
2023/12/29 04:46:05;;;;;;;29.60;17.88;;;;;;;2.67;100.00;62269.41;5110913;28;20200;-79
2023/12/29 04:48:32;;;;;;;28.35;17.30;;;;;;;2.75;100.00;62285.16;5111729;28;20192;-78
2023/12/29 04:50:59;;;;;;;20.05;11.73;;;;;;;2.74;100.00;62281.63;5109657;28;20243;-78
2023/12/29 04:53:25;;;;;;;20.70;10.15;;;;;;;2.78;100.00;62285.22;5112060;28;20528;-79
2023/12/29 04:55:52;;;;;;;11.93;8.73;;;;;;;2.77;100.00;62287.22;5110305;28;20244;-78
2023/12/29 04:58:20;;;;;;;11.80;8.32;;;;;;;2.78;100.00;62288.22;5108781;28;20200;-79
2023/12/29 05:00:48;;;;;;;13.15;8.07;;;;;;;2.77;100.00;62277.16;5112067;28;20223;-77
2023/12/29 05:03:15;;;;;;;14.48;6.90;;;;;;;2.73;100.00;62278.06;5113134;28;20207;-78
2023/12/29 05:05:42;;;;;;;7.75;6.53;;;;;;;2.74;100.00;62281.63;5108809;28;20295;-79
2023/12/29 05:08:09;;;;;;;16.08;6.90;;;;;;;2.87;100.00;62294.44;5111363;28;20195;-78
2023/12/29 05:10:36;;;;;;;5.93;4.18;;;;;;;2.89;100.00;62296.50;5110624;28;20235;-77
2023/12/29 05:13:03;;;;;;;7.03;4.25;;;;;;;2.90;100.00;62302.56;5109727;28;20196;-78
2023/12/29 05:15:30;;;;;;;4.35;3.95;;;;;;;2.92;100.00;62297.06;5109135;28;20283;-79
2023/12/29 05:17:58;;;;;;;5.43;4.80;;;;;;;2.85;100.00;62290.41;5112170;28;20202;-79
2023/12/29 05:20:25;;;;;;;8.27;5.22;;;;;;;2.96;100.00;62303.69;5113856;28;20223;-78
2023/12/29 05:22:52;;;;;;;6.00;4.82;;;;;;;3.05;100.00;62313.47;5108469;28;20200;-79
2023/12/29 05:25:21;;;;;;;7.97;5.13;;;;;;;3.04;100.00;62302.38;5109058;28;20402;-79
2023/12/29 05:27:48;;;;;;;7.50;4.00;;;;;;;3.17;100.00;62325.28;5111134;28;20280;-78
2023/12/29 05:30:15;;;;;;;10.75;6.60;;;;;;;3.08;100.00;62314.03;5108753;28;20238;-79
2023/12/29 05:32:42;;;;;;;10.73;7.88;;;;;;;3.04;100.00;62312.44;5108538;28;20195;-78
2023/12/29 05:35:11;;;;;;;8.05;6.88;;;;;;;3.04;100.00;62314.94;5110240;28;20220;-78
2023/12/29 05:37:38;;;;;;;8.30;6.25;;;;;;;3.07;100.00;62318.03;5111715;28;20192;-78
2023/12/29 05:40:06;;;;;;;9.05;6.47;;;;;;;3.03;100.00;62313.94;5109024;28;20536;-78
2023/12/29 05:42:32;;;;;;;7.25;5.60;;;;;;;2.99;100.00;62309.81;5112343;28;20269;-78
2023/12/29 05:44:59;;;;;;;8.35;5.95;;;;;;;2.97;100.00;62305.25;5109154;28;20249;-79
2023/12/29 05:47:26;;;;;;;8.13;5.53;;;;;;;3.12;100.00;62320.66;5108527;28;20263;-78
2023/12/29 05:49:53;;;;;;;4.60;4.15;;;;;;;3.06;100.00;62314.50;5113601;28;20273;-78
2023/12/29 05:52:22;;;;;;;6.10;5.47;;;;;;;3.04;100.00;62312.44;5107431;28;20203;-77
2023/12/29 05:54:49;;;;;;;8.77;5.55;;;;;;;3.00;100.00;62310.84;5110652;28;20563;-78
2023/12/29 05:57:16;;;;;;;5.93;5.32;;;;;;;2.94;100.00;62301.63;5108813;28;20196;-79
2023/12/29 05:59:43;;;;;;;5.68;5.18;;;;;;;2.88;100.00;62295.97;5109542;28;20516;-78
2023/12/29 06:02:10;;;;;;;9.93;7.05;;;;;;;2.85;100.00;62289.88;5109019;28;20206;-78
2023/12/29 06:04:37;;;;;;;10.73;8.70;;;;;;;2.82;100.00;62292.34;5112805;28;20323;-78
2023/12/29 06:07:06;;;;;;;11.90;8.65;;;;;;;2.79;100.00;62286.75;5111272;28;20259;-80
2023/12/29 06:09:35;;;;;;;8.63;6.82;;;;;;;2.79;100.00;62281.72;5110211;28;20271;-78
2023/12/29 06:12:02;;;;;;;9.45;7.32;;;;;;;2.81;100.00;62285.78;5109114;28;20227;-78
2023/12/29 06:14:29;;;;;;;9.93;6.40;;;;;;;2.73;100.00;62277.53;5110082;28;20212;-78
2023/12/29 06:16:56;;;;;;;15.50;8.55;;;;;;;2.72;100.00;62279.56;5108898;28;20192;-79
2023/12/29 06:19:23;;;;;;;11.45;8.20;;;;;;;2.68;100.00;62269.91;5109559;28;20246;-76
2023/12/29 06:21:50;;;;;;;9.20;7.38;;;;;;;2.66;100.00;62275.91;5110327;28;20215;-79
2023/12/29 06:24:18;;;;;;;10.68;7.70;;;;;;;2.68;100.00;62275.44;5109492;28;20303;-80
2023/12/29 06:26:46;;;;;;;13.27;8.30;;;;;;;2.67;100.00;62273.91;5108063;28;20192;-78
2023/12/29 06:29:13;;;;;;;12.75;8.63;;;;;;;2.55;100.00;62264.59;5107678;28;20220;-78
2023/12/29 06:31:41;;;;;;;16.33;9.25;;;;;;;2.59;100.00;62265.69;5108909;28;20231;-78
2023/12/29 06:34:09;;;;;;;13.30;8.35;;;;;;;2.63;100.00;62272.81;5107202;28;20228;-79
2023/12/29 06:36:36;;;;;;;25.10;12.63;;;;;;;2.38;100.00;62242.63;5110539;28;20291;-79
2023/12/29 06:39:03;;;;;;;17.95;10.63;;;;;;;2.37;100.00;62246.09;5108560;28;20219;-78
2023/12/29 06:41:30;;;;;;;19.95;11.23;;;;;;;2.36;100.00;62242.56;5108608;28;20192;-79
2023/12/29 06:43:58;;;;;;;20.35;9.57;;;;;;;2.43;100.00;62249.75;5106967;28;20595;-78
2023/12/29 06:46:25;;;;;;;17.33;10.25;;;;;;;2.48;100.00;62251.88;5107360;28;20385;-78
2023/12/29 06:48:52;;;;;;;20.58;11.77;;;;;;;2.53;100.00;62257.00;5108441;28;20251;-77
2023/12/29 06:51:19;;;;;;;18.42;10.50;;;;;;;2.55;100.00;62261.56;5109567;28;20244;-77
2023/12/29 06:53:47;;;;;;;19.63;11.13;;;;;;;2.58;100.00;62259.63;5108441;28;20192;-79
2023/12/29 06:56:15;;;;;;;12.23;10.02;;;;;;;2.59;100.00;62263.69;5108080;28;20192;-77
2023/12/29 06:58:42;;;;;;;18.27;10.88;;;;;;;2.63;100.00;62272.31;5106673;28;20196;-78
2023/12/29 07:01:10;;;;;;;14.95;8.40;;;;;;;2.65;100.00;62269.84;5106697;28;20456;-79
2023/12/29 07:03:37;;;;;;;13.18;10.43;;;;;;;2.72;100.00;62279.56;5109264;28;20216;-78
2023/12/29 07:06:05;;;;;;;18.40;13.02;;;;;;;2.79;100.00;62286.75;5111067;28;20192;-79
2023/12/29 07:08:32;;;;;;;18.05;12.65;;;;;;;2.90;100.00;62295.53;5107375;28;20501;-79
2023/12/29 07:10:59;;;;;;;21.20;12.00;;;;;;;2.97;100.00;62300.22;5107184;28;20299;-79
2023/12/29 07:13:26;;;;;;;17.90;12.05;;;;;;;3.21;100.00;62329.91;5108108;28;20215;-79
2023/12/29 07:15:53;;;;;;;20.08;11.85;;;;;;;3.54;100.00;62358.81;5107800;28;20581;-78
2023/12/29 07:18:21;;;;;;;26.27;11.52;;;;;;;3.98;100.00;62403.53;5108406;28;20249;-78
2023/12/29 07:20:48;;;;;;;18.55;12.43;;;;;;;4.03;100.00;62415.72;5108028;28;20219;-79
2023/12/29 07:23:15;;;;;;;17.77;12.73;;;;;;;4.33;100.00;62444.09;5113610;28;20237;-78
2023/12/29 07:25:42;;;;;;;24.60;12.95;;;;;;;4.53;100.00;62462.13;5107065;28;20212;-78
2023/12/29 07:28:09;;;;;;;36.00;17.42;;;;;;;4.68;100.00;62477.56;5107370;28;20547;-79
2023/12/29 07:30:36;;;;;;;30.45;17.48;;;;;;;4.74;100.00;62486.28;5108806;28;20220;-78
2023/12/29 07:33:03;;;;;;;19.73;13.30;;;;;;;4.42;100.00;62451.31;5109479;28;20234;-79
2023/12/29 07:35:32;;;;;;;18.67;12.57;;;;;;;4.42;100.00;62453.84;5108361;28;20212;-79
2023/12/29 07:37:59;;;;;;;20.40;12.98;;;;;;;4.44;100.00;62455.91;5114071;28;20198;-77
2023/12/29 07:40:26;;;;;;;21.15;13.10;;;;;;;4.16;100.00;62424.06;5111170;28;20212;-78
2023/12/29 07:42:53;;;;;;;21.50;14.45;;;;;;;4.08;100.00;62418.88;5106870;28;20242;-77
2023/12/29 07:45:20;;;;;;;19.30;12.20;;;;;;;4.00;100.00;62410.13;5108337;28;20215;-78
2023/12/29 07:47:47;;;;;;;17.73;11.98;;;;;;;4.05;100.00;62418.31;5114543;28;20198;-78
2023/12/29 07:50:14;;;;;;;16.00;11.63;;;;;;;4.22;100.00;62427.72;5112201;28;20211;-78
2023/12/29 07:52:43;;;;;;;18.17;12.07;;;;;;;4.32;100.00;62445.56;5116351;28;20231;-77
2023/12/29 07:55:10;;;;;;;19.80;12.10;;;;;;;4.37;100.00;62445.66;5112380;28;20434;-78
2023/12/29 07:57:37;;;;;;;20.33;12.52;;;;;;;4.42;100.00;62450.81;5112490;28;20245;-79
2023/12/29 08:00:06;;;;;;;19.25;12.02;;;;;;;4.52;100.00;62461.13;5112967;28;20525;-79
2023/12/29 08:02:33;;;;;;;19.13;11.88;;;;;;;4.29;100.00;62437.97;5111857;28;20508;-79
2023/12/29 08:05:00;;;;;;;20.20;13.20;;;;;;;4.39;100.00;62452.75;5113346;28;20211;-79
2023/12/29 08:07:27;;;;;;;20.42;13.82;;;;;;;4.51;100.00;62458.06;5111518;28;20214;-79
2023/12/29 08:09:55;;;;;;;21.95;13.95;;;;;;;4.52;100.00;62461.63;5119593;28;20220;-78
2023/12/29 08:12:22;;;;;;;20.48;14.07;;;;;;;4.63;100.00;62472.44;5111926;28;20235;-78
2023/12/29 08:14:49;;;;;;;20.65;13.00;;;;;;;4.78;100.00;62492.91;5115295;28;20234;-78
2023/12/29 08:17:16;;;;;;;22.23;15.73;;;;;;;4.92;100.00;62507.31;5111429;28;20207;-78
2023/12/29 08:19:43;;;;;;;24.42;14.75;;;;;;;4.96;100.00;62510.94;5111684;28;20400;-78
2023/12/29 08:22:10;;;;;;;23.33;14.85;;;;;;;5.11;100.00;62524.38;5112556;28;20202;-79
2023/12/29 08:24:37;;;;;;;20.33;14.85;;;;;;;5.24;100.00;62537.75;5113164;28;20207;-79
2023/12/29 08:27:05;;;;;;;25.13;14.63;;;;;;;5.44;100.00;62558.34;5114614;28;20219;-78
2023/12/29 08:29:32;;;;;;;20.77;14.93;;;;;;;5.47;100.00;62558.41;5110585;28;20283;-79
2023/12/29 08:32:01;;;;;;;24.48;15.38;;;;;;;5.61;100.00;62570.31;5111875;28;20540;-78
2023/12/29 08:34:28;;;;;;;20.33;15.75;;;;;;;5.37;100.00;62553.16;5110642;28;20271;-79
2023/12/29 08:36:56;;;;;;;27.42;16.65;;;;;;;5.21;100.00;62531.63;5111807;28;20200;-78
2023/12/29 08:39:23;;;;;;;22.67;16.02;;;;;;;5.33;100.00;62549.53;5110727;28;20227;-78
2023/12/29 08:41:50;;;;;;;27.42;16.60;;;;;;;5.29;100.00;62545.44;5116772;28;20259;-79
2023/12/29 08:44:19;;;;;;;27.55;16.77;;;;;;;5.31;100.00;62544.47;5113842;28;20220;-78
2023/12/29 08:46:45;;;;;;;26.92;16.50;;;;;;;5.22;100.00;62537.72;5110184;28;20196;-77
2023/12/29 08:49:12;;;;;;;31.17;18.88;;;;;;;4.84;100.00;62496.06;5109611;28;20219;-79
2023/12/29 08:51:39;;;;;;;28.05;18.05;;;;;;;4.85;100.00;62500.13;5113866;28;20231;-80
2023/12/29 08:54:06;;;;;;;28.98;19.45;;;;;;;4.99;100.00;62514.03;5109349;28;20219;-79
2023/12/29 08:56:33;;;;;;;29.40;19.85;;;;;;;5.08;100.00;62520.75;5110286;28;20195;-80
2023/12/29 08:59:00;;;;;;;30.15;18.17;;;;;;;5.21;100.00;62534.16;5112074;28;20216;-79
2023/12/29 09:01:28;;;;;;;26.20;17.00;;;;;;;5.48;100.00;62564.50;5109918;28;20201;-79
2023/12/29 09:03:55;;;;;;;30.60;18.27;;;;;;;5.67;100.00;62582.06;5110707;28;20200;-79
2023/12/29 09:06:22;;;;;;;32.30;21.60;;;;;;;5.76;100.00;62591.31;5109344;28;20211;-78
2023/12/29 09:08:49;;;;;;;34.15;23.05;;;;;;;5.82;100.00;62592.47;5113749;28;20192;-79
2023/12/29 09:11:16;;;;;;;35.50;23.27;;;;;;;5.76;100.00;62590.81;5110067;28;20547;-78
2023/12/29 09:13:43;;;;;;;44.42;23.88;;;;;;;5.82;100.00;62599.53;5110366;28;20192;-78
2023/12/29 09:16:10;;;;;;;39.15;22.70;;;;;;;5.91;100.00;62603.75;5112755;28;20219;-77
2023/12/29 09:18:38;;;;;;;34.38;23.20;;;;;;;5.79;100.00;62591.91;5109894;28;20196;-78
2023/12/29 09:21:05;;;;;;;37.60;23.08;;;;;;;5.90;100.00;62607.28;5109752;28;20196;-78
2023/12/29 09:23:32;;;;;;;36.83;21.48;;;;;;;6.08;100.00;62623.28;5110582;28;20192;-78
2023/12/29 09:25:59;;;;;;;36.88;22.42;;;;;;;6.24;100.00;62640.31;5112261;28;20216;-77
2023/12/29 09:28:26;;;;;;;33.42;20.83;;;;;;;6.51;100.00;62670.66;5110214;28;20268;-79
2023/12/29 09:30:53;;;;;;;36.38;21.98;;;;;;;6.57;100.00;62676.34;5114650;28;20281;-80
2023/12/29 09:33:20;;;;;;;39.58;24.05;;;;;;;6.60;100.00;62677.44;5112082;28;20269;-79
2023/12/29 09:35:48;;;;;;;42.40;25.17;;;;;;;6.75;100.00;62692.38;5109649;28;20254;-78
2023/12/29 09:38:15;;;;;;;37.03;24.52;;;;;;;6.85;100.00;62702.69;5108614;28;20196;-76
2023/12/29 09:40:42;;;;;;;39.58;24.17;;;;;;;6.99;100.00;62717.13;5111127;28;20223;-78
2023/12/29 09:43:09;;;;;;;33.88;22.23;;;;;;;7.28;100.00;62747.06;5109827;28;20261;-78
2023/12/29 09:45:38;;;;;;;33.28;22.17;;;;;;;7.31;100.00;62755.22;5112561;28;20226;-78
2023/12/29 09:48:06;;;;;;;35.53;22.17;;;;;;;7.42;100.00;62758.47;5110691;28;20196;-77
2023/12/29 09:50:32;;;;;;;35.08;21.80;;;;;;;7.60;98.22;62782.09;5109441;28;20224;-79
2023/12/29 09:53:01;;;;;;;32.15;19.40;;;;;;;7.63;98.22;62785.72;5108916;28;20242;-79
2023/12/29 09:55:28;;;;;;;20.88;14.15;;;;;;;7.71;95.89;62790.91;5109002;28;20375;-79
2023/12/29 09:57:55;;;;;;;21.35;13.18;;;;;;;7.85;95.05;62802.84;5112647;28;20192;-79
2023/12/29 10:00:22;;;;;;;20.13;12.13;;;;;;;7.98;94.50;62813.72;5113183;28;20316;-78
2023/12/29 10:02:51;;;;;;;21.33;13.50;;;;;;;8.13;93.28;62834.81;5111742;28;20203;-79
2023/12/29 10:05:18;;;;;;;19.20;12.73;;;;;;;8.14;93.32;62835.31;5109503;28;20227;-79
2023/12/29 10:07:45;;;;;;;19.30;13.90;;;;;;;8.20;93.22;62838.97;5109530;28;20230;-78
2023/12/29 10:10:15;;;;;;;29.00;17.85;;;;;;;8.26;91.78;62844.69;5109060;28;20216;-78
2023/12/29 10:12:42;;;;;;;33.47;18.35;;;;;;;8.39;91.38;62858.13;5110549;28;20247;-79
2023/12/29 10:15:13;;;;;;;24.02;15.52;;;;;;;8.38;90.27;62862.13;5111929;28;20219;-78
2023/12/29 10:17:47;;;;;;;23.17;16.83;;;;;;;8.45;90.03;62864.81;5109397;28;20184;-79
2023/12/29 10:20:22;;;;;;;29.45;18.02;;;;;;;8.56;89.08;62876.19;5111278;28;20215;-78
2023/12/29 10:22:52;;;;;;;28.50;15.85;;;;;;;8.63;88.52;62885.44;5110240;28;20243;-79
2023/12/29 10:25:20;;;;;;;23.35;14.18;;;;;;;8.67;87.37;62884.50;5109113;28;20215;-80
2023/12/29 10:27:47;;;;;;;21.27;14.30;;;;;;;8.74;86.75;62899.34;5110386;28;20196;-79
2023/12/29 10:30:14;;;;;;;21.23;14.20;;;;;;;8.92;84.07;62915.41;5110605;28;20255;-80
2023/12/29 10:32:44;;;;;;;20.83;13.77;;;;;;;9.11;82.97;62935.03;5108629;28;20262;-79
2023/12/29 10:35:12;;;;;;;19.42;13.50;;;;;;;9.24;83.98;62945.94;5108775;28;20254;-79
2023/12/29 10:37:39;;;;;;;19.23;13.93;;;;;;;9.35;81.37;62954.78;5109854;28;20200;-78
2023/12/29 10:40:07;;;;;;;17.90;12.73;;;;;;;9.40;80.35;62961.97;5109803;28;20216;-79
2023/12/29 10:42:35;;;;;;;22.50;12.63;;;;;;;9.59;80.87;62989.22;5112445;28;20203;-79
2023/12/29 10:45:06;;;;;;;18.00;10.65;;;;;;;9.76;77.48;63001.72;5111136;28;20219;-79
2023/12/29 10:47:35;;;;;;;16.95;11.35;;;;;;;10.04;85.42;63033.22;5109667;28;20389;-80
2023/12/29 10:50:03;;;;;;;13.48;9.85;;;;;;;10.18;74.53;63040.09;5109365;28;20227;-80
2023/12/29 10:52:30;;;;;;;13.07;10.98;;;;;;;10.22;75.03;63051.88;5111588;28;20238;-80
2023/12/29 10:55:05;;;;;;;15.15;12.02;;;;;;;10.33;73.09;63063.78;5108226;28;20212;-79
2023/12/29 10:57:32;;;;;;;14.95;10.55;;;;;;;10.45;72.41;63073.66;5110746;28;20372;-80
2023/12/29 11:00:01;;;;;;;16.17;11.45;;;;;;;10.41;73.19;63072.06;5110060;28;20402;-78
2023/12/29 11:02:28;;;;;;;17.08;11.73;;;;;;;10.53;74.59;63083.94;5110573;28;20196;-78
2023/12/29 11:05:02;;;;;;;18.88;11.18;;;;;;;10.73;72.40;63096.50;5109508;28;20215;-78
2023/12/29 11:07:36;;;;;;;18.27;11.27;;;;;;;10.83;67.63;63117.56;5111271;28;20194;-79
2023/12/29 11:10:04;;;;;;;14.48;10.90;;;;;;;10.83;67.69;63114.47;5110240;28;20216;-79
2023/12/29 11:12:34;;;;;;;19.25;12.60;;;;;;;10.89;67.81;63116.13;5108818;28;20539;-79
2023/12/29 11:15:04;;;;;;;20.00;12.88;;;;;;;10.76;69.42;63105.22;5111291;28;20219;-79
2023/12/29 11:17:32;;;;;;;23.08;12.38;;;;;;;10.77;69.00;63100.66;5109556;28;20192;-79
2023/12/29 11:20:00;;;;;;;18.50;14.02;;;;;;;10.83;69.08;63112.47;5109521;28;20212;-79
2023/12/29 11:22:28;;;;;;;22.17;14.77;;;;;;;10.94;69.26;63126.38;5109756;28;20218;-79
2023/12/29 11:24:58;;;;;;;24.40;14.18;;;;;;;10.93;69.14;63125.34;5110508;28;20396;-80